Portada
METAR-TAF:

METAR-TAF

Aeropuertos :

Aeropuerto de Lisboa

Lisboa, Portugal

latitud: 38-46N, longitud: 009-08W, altitud: 114 m

Observación

El informe se hizo hace 26 minutos, a las 10:30 UTC
Viento 10 kt del noreste
Temperatura 7°C
Humedad 70%
Presión 1026 hPa
Visibilidad 10 km o más
sin nubes por debajo de 1500 m y sin presencia de cumulonimbus.

METAR: LPPT 221030Z 05010KT CAVOK 07/02 Q1026

Hora: 10:56 (10:56 UTC)

Pronóstico

El informe se hizo hace 5 horas y 56 minutos, a las 05:00 UTC
Pronóstico válido del 22 a las 06 UTC al 23 a las 12 UTC
Viento 8 kt del noreste
Visibilidad 10 km o más
sin nubes por debajo de 1500 m y sin presencia de cumulonimbus.

TAF: LPPT 220500Z 2206/2312 05008KT CAVOK

Observaciones y pronósticos meteorológicos de más de 4000 aeropuertos (mensajes METAR y TAF).

Los puntos amarillos y rojos representan las estaciones disponibles.

Ponga el ratón en el punto deseado para ver el nombre de la estación.

Haga clic para ver las observaciones y los pronósticos meteorológicos.

Para cambiar el mapa : haga clic en los botones verdes con una cruz de color negro para hacer un zoom, en el botón verde con un guión para alejar o en las flechas verdes para mapas adyacentes.


METAR-TAF: